sensor_id;sensor_type;location;lat;lon;timestamp;P1;durP1;ratioP1;P2;durP2;ratioP2
18732;SDS011;9495;51.210;2.934;2023-04-04T00:00:45;7.40;;;3.80;;
18732;SDS011;9495;51.210;2.934;2023-04-04T00:03:14;7.83;;;3.93;;
18732;SDS011;9495;51.210;2.934;2023-04-04T00:05:43;9.53;;;4.03;;
18732;SDS011;9495;51.210;2.934;2023-04-04T00:08:13;9.40;;;4.00;;
18732;SDS011;9495;51.210;2.934;2023-04-04T00:10:42;7.13;;;4.17;;
18732;SDS011;9495;51.210;2.934;2023-04-04T00:13:10;9.57;;;3.87;;
18732;SDS011;9495;51.210;2.934;2023-04-04T00:15:39;9.27;;;4.60;;
18732;SDS011;9495;51.210;2.934;2023-04-04T00:18:07;10.13;;;4.47;;
18732;SDS011;9495;51.210;2.934;2023-04-04T00:20:36;11.70;;;3.93;;
18732;SDS011;9495;51.210;2.934;2023-04-04T00:23:05;8.87;;;4.07;;
18732;SDS011;9495;51.210;2.934;2023-04-04T00:25:37;9.63;;;4.43;;
18732;SDS011;9495;51.210;2.934;2023-04-04T00:28:06;8.23;;;3.97;;
18732;SDS011;9495;51.210;2.934;2023-04-04T00:30:35;8.13;;;4.10;;
18732;SDS011;9495;51.210;2.934;2023-04-04T00:33:04;9.30;;;3.87;;
18732;SDS011;9495;51.210;2.934;2023-04-04T00:35:32;8.33;;;4.47;;
18732;SDS011;9495;51.210;2.934;2023-04-04T00:38:01;6.60;;;4.20;;
18732;SDS011;9495;51.210;2.934;2023-04-04T00:40:29;7.00;;;4.37;;
18732;SDS011;9495;51.210;2.934;2023-04-04T00:42:59;7.40;;;4.10;;
18732;SDS011;9495;51.210;2.934;2023-04-04T00:45:28;7.63;;;3.97;;
18732;SDS011;9495;51.210;2.934;2023-04-04T00:47:57;9.80;;;4.00;;
18732;SDS011;9495;51.210;2.934;2023-04-04T00:50:27;8.27;;;4.00;;
18732;SDS011;9495;51.210;2.934;2023-04-04T00:52:57;8.43;;;4.37;;
18732;SDS011;9495;51.210;2.934;2023-04-04T00:55:26;8.60;;;4.67;;
18732;SDS011;9495;51.210;2.934;2023-04-04T00:57:54;8.60;;;4.57;;
18732;SDS011;9495;51.210;2.934;2023-04-04T01:00:26;8.30;;;4.30;;
18732;SDS011;9495;51.210;2.934;2023-04-04T01:02:55;8.23;;;4.47;;
18732;SDS011;9495;51.210;2.934;2023-04-04T01:05:23;7.47;;;4.40;;
18732;SDS011;9495;51.210;2.934;2023-04-04T01:07:52;9.10;;;4.37;;
18732;SDS011;9495;51.210;2.934;2023-04-04T01:10:21;7.10;;;4.30;;
18732;SDS011;9495;51.210;2.934;2023-04-04T01:12:50;7.80;;;4.30;;
18732;SDS011;9495;51.210;2.934;2023-04-04T01:15:19;6.73;;;3.80;;
18732;SDS011;9495;51.210;2.934;2023-04-04T01:17:48;7.73;;;4.23;;
18732;SDS011;9495;51.210;2.934;2023-04-04T01:20:19;6.83;;;4.07;;
18732;SDS011;9495;51.210;2.934;2023-04-04T01:22:52;8.23;;;4.47;;
18732;SDS011;9495;51.210;2.934;2023-04-04T01:25:26;11.43;;;5.07;;
18732;SDS011;9495;51.210;2.934;2023-04-04T01:27:57;8.17;;;4.50;;
18732;SDS011;9495;51.210;2.934;2023-04-04T01:30:27;7.53;;;3.93;;
18732;SDS011;9495;51.210;2.934;2023-04-04T01:33:00;8.93;;;4.33;;
18732;SDS011;9495;51.210;2.934;2023-04-04T01:35:34;13.37;;;4.23;;
18732;SDS011;9495;51.210;2.934;2023-04-04T01:38:13;6.73;;;4.30;;
18732;SDS011;9495;51.210;2.934;2023-04-04T01:40:49;8.80;;;4.37;;
18732;SDS011;9495;51.210;2.934;2023-04-04T01:43:22;8.07;;;4.70;;
18732;SDS011;9495;51.210;2.934;2023-04-04T01:45:50;8.60;;;4.20;;
18732;SDS011;9495;51.210;2.934;2023-04-04T01:48:19;7.33;;;4.37;;
18732;SDS011;9495;51.210;2.934;2023-04-04T01:50:48;10.07;;;4.33;;
18732;SDS011;9495;51.210;2.934;2023-04-04T01:53:16;7.80;;;4.63;;
18732;SDS011;9495;51.210;2.934;2023-04-04T01:55:45;10.93;;;5.10;;
18732;SDS011;9495;51.210;2.934;2023-04-04T01:58:15;8.83;;;4.60;;
18732;SDS011;9495;51.210;2.934;2023-04-04T02:00:43;7.80;;;4.20;;
18732;SDS011;9495;51.210;2.934;2023-04-04T02:03:12;7.00;;;4.17;;
18732;SDS011;9495;51.210;2.934;2023-04-04T02:05:40;8.17;;;4.60;;
18732;SDS011;9495;51.210;2.934;2023-04-04T02:08:09;8.47;;;4.63;;
18732;SDS011;9495;51.210;2.934;2023-04-04T02:10:37;8.23;;;4.47;;
18732;SDS011;9495;51.210;2.934;2023-04-04T02:13:06;8.87;;;4.37;;
18732;SDS011;9495;51.210;2.934;2023-04-04T02:15:36;8.47;;;4.60;;
18732;SDS011;9495;51.210;2.934;2023-04-04T02:18:04;12.80;;;5.13;;
18732;SDS011;9495;51.210;2.934;2023-04-04T02:20:33;12.00;;;5.17;;
18732;SDS011;9495;51.210;2.934;2023-04-04T02:23:01;9.30;;;4.87;;
18732;SDS011;9495;51.210;2.934;2023-04-04T02:25:30;8.37;;;5.27;;
18732;SDS011;9495;51.210;2.934;2023-04-04T02:27:58;9.87;;;4.87;;
18732;SDS011;9495;51.210;2.934;2023-04-04T02:30:27;8.40;;;5.10;;
18732;SDS011;9495;51.210;2.934;2023-04-04T02:32:58;9.60;;;4.83;;
18732;SDS011;9495;51.210;2.934;2023-04-04T02:35:26;11.20;;;5.00;;
18732;SDS011;9495;51.210;2.934;2023-04-04T02:37:55;8.33;;;4.90;;
18732;SDS011;9495;51.210;2.934;2023-04-04T02:40:23;9.17;;;5.27;;
18732;SDS011;9495;51.210;2.934;2023-04-04T02:42:52;9.97;;;5.17;;
18732;SDS011;9495;51.210;2.934;2023-04-04T02:45:21;11.13;;;5.40;;
18732;SDS011;9495;51.210;2.934;2023-04-04T02:47:49;10.30;;;5.20;;
18732;SDS011;9495;51.210;2.934;2023-04-04T02:50:19;9.20;;;5.10;;
18732;SDS011;9495;51.210;2.934;2023-04-04T02:52:48;11.37;;;5.40;;
18732;SDS011;9495;51.210;2.934;2023-04-04T02:55:16;13.13;;;5.53;;
18732;SDS011;9495;51.210;2.934;2023-04-04T02:57:49;16.73;;;5.40;;
18732;SDS011;9495;51.210;2.934;2023-04-04T03:00:18;12.63;;;5.37;;
18732;SDS011;9495;51.210;2.934;2023-04-04T03:02:51;7.97;;;5.37;;
18732;SDS011;9495;51.210;2.934;2023-04-04T03:05:23;9.03;;;5.43;;
18732;SDS011;9495;51.210;2.934;2023-04-04T03:07:52;11.67;;;5.37;;
18732;SDS011;9495;51.210;2.934;2023-04-04T03:10:22;8.23;;;4.93;;
18732;SDS011;9495;51.210;2.934;2023-04-04T03:12:51;7.93;;;5.40;;
18732;SDS011;9495;51.210;2.934;2023-04-04T03:15:19;10.60;;;5.37;;
18732;SDS011;9495;51.210;2.934;2023-04-04T03:17:48;9.20;;;4.63;;
18732;SDS011;9495;51.210;2.934;2023-04-04T03:20:17;10.53;;;5.43;;
18732;SDS011;9495;51.210;2.934;2023-04-04T03:22:47;10.47;;;5.60;;
18732;SDS011;9495;51.210;2.934;2023-04-04T03:25:15;10.33;;;5.50;;
18732;SDS011;9495;51.210;2.934;2023-04-04T03:27:44;14.27;;;5.43;;
18732;SDS011;9495;51.210;2.934;2023-04-04T03:30:13;11.80;;;5.50;;
18732;SDS011;9495;51.210;2.934;2023-04-04T03:32:41;14.47;;;5.70;;
18732;SDS011;9495;51.210;2.934;2023-04-04T03:35:10;16.27;;;6.07;;
18732;SDS011;9495;51.210;2.934;2023-04-04T03:37:38;12.90;;;5.90;;
18732;SDS011;9495;51.210;2.934;2023-04-04T03:40:09;13.47;;;6.13;;
18732;SDS011;9495;51.210;2.934;2023-04-04T03:42:39;14.93;;;6.00;;
18732;SDS011;9495;51.210;2.934;2023-04-04T03:45:08;9.63;;;5.40;;
18732;SDS011;9495;51.210;2.934;2023-04-04T03:47:37;11.77;;;5.77;;
18732;SDS011;9495;51.210;2.934;2023-04-04T03:50:06;11.27;;;6.00;;
18732;SDS011;9495;51.210;2.934;2023-04-04T03:52:36;9.40;;;5.53;;
18732;SDS011;9495;51.210;2.934;2023-04-04T03:55:05;15.67;;;6.50;;
18732;SDS011;9495;51.210;2.934;2023-04-04T03:57:35;10.77;;;6.10;;
18732;SDS011;9495;51.210;2.934;2023-04-04T04:00:04;12.77;;;6.00;;
18732;SDS011;9495;51.210;2.934;2023-04-04T04:02:33;12.20;;;6.47;;
18732;SDS011;9495;51.210;2.934;2023-04-04T04:05:02;13.07;;;6.10;;
18732;SDS011;9495;51.210;2.934;2023-04-04T04:07:31;10.50;;;5.90;;
18732;SDS011;9495;51.210;2.934;2023-04-04T04:09:59;16.30;;;5.63;;
18732;SDS011;9495;51.210;2.934;2023-04-04T04:12:28;13.43;;;5.77;;
18732;SDS011;9495;51.210;2.934;2023-04-04T04:14:57;9.90;;;6.13;;
18732;SDS011;9495;51.210;2.934;2023-04-04T04:17:26;13.13;;;6.50;;
18732;SDS011;9495;51.210;2.934;2023-04-04T04:19:55;11.47;;;5.57;;
18732;SDS011;9495;51.210;2.934;2023-04-04T04:22:23;14.53;;;6.50;;
18732;SDS011;9495;51.210;2.934;2023-04-04T04:24:52;14.87;;;6.40;;
18732;SDS011;9495;51.210;2.934;2023-04-04T04:27:20;16.43;;;6.43;;
18732;SDS011;9495;51.210;2.934;2023-04-04T04:29:49;17.07;;;6.23;;
18732;SDS011;9495;51.210;2.934;2023-04-04T04:32:19;14.93;;;6.50;;
18732;SDS011;9495;51.210;2.934;2023-04-04T04:34:47;14.70;;;7.37;;
18732;SDS011;9495;51.210;2.934;2023-04-04T04:37:16;14.63;;;7.80;;
18732;SDS011;9495;51.210;2.934;2023-04-04T04:39:45;14.50;;;7.43;;
18732;SDS011;9495;51.210;2.934;2023-04-04T04:42:13;20.93;;;8.30;;
18732;SDS011;9495;51.210;2.934;2023-04-04T04:44:42;19.87;;;8.03;;
18732;SDS011;9495;51.210;2.934;2023-04-04T04:47:11;18.07;;;6.67;;
18732;SDS011;9495;51.210;2.934;2023-04-04T04:49:40;21.67;;;7.00;;
18732;SDS011;9495;51.210;2.934;2023-04-04T04:52:11;14.40;;;6.77;;
18732;SDS011;9495;51.210;2.934;2023-04-04T04:54:40;16.63;;;7.17;;
18732;SDS011;9495;51.210;2.934;2023-04-04T04:57:09;18.53;;;7.83;;
18732;SDS011;9495;51.210;2.934;2023-04-04T04:59:38;16.60;;;7.40;;
18732;SDS011;9495;51.210;2.934;2023-04-04T05:02:07;18.40;;;7.63;;
18732;SDS011;9495;51.210;2.934;2023-04-04T05:04:36;13.93;;;6.80;;
18732;SDS011;9495;51.210;2.934;2023-04-04T05:07:07;16.20;;;6.57;;
18732;SDS011;9495;51.210;2.934;2023-04-04T05:09:38;14.80;;;7.73;;
18732;SDS011;9495;51.210;2.934;2023-04-04T05:12:06;14.37;;;7.50;;
18732;SDS011;9495;51.210;2.934;2023-04-04T05:14:34;15.63;;;7.43;;
18732;SDS011;9495;51.210;2.934;2023-04-04T05:17:03;12.37;;;7.07;;
18732;SDS011;9495;51.210;2.934;2023-04-04T05:19:32;13.17;;;7.13;;
18732;SDS011;9495;51.210;2.934;2023-04-04T05:22:00;13.00;;;7.33;;
18732;SDS011;9495;51.210;2.934;2023-04-04T05:24:30;18.33;;;7.27;;
18732;SDS011;9495;51.210;2.934;2023-04-04T05:26:59;15.00;;;7.03;;
18732;SDS011;9495;51.210;2.934;2023-04-04T05:29:27;13.47;;;6.93;;
18732;SDS011;9495;51.210;2.934;2023-04-04T05:31:56;16.13;;;6.70;;
18732;SDS011;9495;51.210;2.934;2023-04-04T05:34:25;18.20;;;7.73;;
18732;SDS011;9495;51.210;2.934;2023-04-04T05:36:53;15.23;;;7.13;;
18732;SDS011;9495;51.210;2.934;2023-04-04T05:39:23;10.30;;;6.33;;
18732;SDS011;9495;51.210;2.934;2023-04-04T05:41:52;15.13;;;6.20;;
18732;SDS011;9495;51.210;2.934;2023-04-04T05:44:21;19.87;;;7.50;;
18732;SDS011;9495;51.210;2.934;2023-04-04T05:46:49;16.93;;;7.73;;
18732;SDS011;9495;51.210;2.934;2023-04-04T05:49:18;19.40;;;7.70;;
18732;SDS011;9495;51.210;2.934;2023-04-04T05:51:46;17.37;;;8.17;;
18732;SDS011;9495;51.210;2.934;2023-04-04T05:54:14;18.87;;;7.80;;
18732;SDS011;9495;51.210;2.934;2023-04-04T05:56:43;18.53;;;8.50;;
18732;SDS011;9495;51.210;2.934;2023-04-04T05:59:14;24.47;;;8.40;;
18732;SDS011;9495;51.210;2.934;2023-04-04T06:01:43;21.60;;;7.97;;
18732;SDS011;9495;51.210;2.934;2023-04-04T06:04:11;19.10;;;8.07;;
18732;SDS011;9495;51.210;2.934;2023-04-04T06:06:40;30.17;;;8.17;;
18732;SDS011;9495;51.210;2.934;2023-04-04T06:09:09;17.60;;;8.47;;
18732;SDS011;9495;51.210;2.934;2023-04-04T06:11:37;16.47;;;7.93;;
18732;SDS011;9495;51.210;2.934;2023-04-04T06:14:06;17.23;;;7.90;;
18732;SDS011;9495;51.210;2.934;2023-04-04T06:16:36;18.30;;;7.37;;
18732;SDS011;9495;51.210;2.934;2023-04-04T06:19:04;14.37;;;7.20;;
18732;SDS011;9495;51.210;2.934;2023-04-04T06:21:33;20.17;;;7.37;;
18732;SDS011;9495;51.210;2.934;2023-04-04T06:24:01;16.37;;;7.13;;
18732;SDS011;9495;51.210;2.934;2023-04-04T06:26:30;14.63;;;7.30;;
18732;SDS011;9495;51.210;2.934;2023-04-04T06:28:59;14.97;;;6.50;;
18732;SDS011;9495;51.210;2.934;2023-04-04T06:31:27;13.87;;;6.73;;
18732;SDS011;9495;51.210;2.934;2023-04-04T06:33:57;15.07;;;6.90;;
18732;SDS011;9495;51.210;2.934;2023-04-04T06:36:26;11.53;;;7.00;;
18732;SDS011;9495;51.210;2.934;2023-04-04T06:38:55;14.70;;;6.93;;
18732;SDS011;9495;51.210;2.934;2023-04-04T06:41:24;15.43;;;6.47;;
18732;SDS011;9495;51.210;2.934;2023-04-04T06:43:52;14.60;;;6.70;;
18732;SDS011;9495;51.210;2.934;2023-04-04T06:46:21;14.07;;;6.63;;
18732;SDS011;9495;51.210;2.934;2023-04-04T06:48:50;14.77;;;6.90;;
18732;SDS011;9495;51.210;2.934;2023-04-04T06:51:21;16.90;;;7.00;;
18732;SDS011;9495;51.210;2.934;2023-04-04T06:53:49;17.63;;;7.60;;
18732;SDS011;9495;51.210;2.934;2023-04-04T06:56:18;18.93;;;8.37;;
18732;SDS011;9495;51.210;2.934;2023-04-04T06:58:47;21.67;;;7.23;;
18732;SDS011;9495;51.210;2.934;2023-04-04T07:01:16;20.47;;;8.73;;
18732;SDS011;9495;51.210;2.934;2023-04-04T07:03:44;21.07;;;7.80;;
18732;SDS011;9495;51.210;2.934;2023-04-04T07:06:13;12.90;;;7.37;;
18732;SDS011;9495;51.210;2.934;2023-04-04T07:08:43;14.70;;;7.30;;
18732;SDS011;9495;51.210;2.934;2023-04-04T07:11:12;15.97;;;7.37;;
18732;SDS011;9495;51.210;2.934;2023-04-04T07:13:40;15.00;;;7.43;;
18732;SDS011;9495;51.210;2.934;2023-04-04T07:16:08;20.03;;;7.90;;
18732;SDS011;9495;51.210;2.934;2023-04-04T07:18:37;13.60;;;6.37;;
18732;SDS011;9495;51.210;2.934;2023-04-04T07:21:06;17.90;;;7.43;;
18732;SDS011;9495;51.210;2.934;2023-04-04T07:23:34;15.60;;;7.40;;
18732;SDS011;9495;51.210;2.934;2023-04-04T07:26:04;15.60;;;7.70;;
18732;SDS011;9495;51.210;2.934;2023-04-04T07:28:33;16.57;;;6.73;;
18732;SDS011;9495;51.210;2.934;2023-04-04T07:31:01;14.33;;;7.03;;
18732;SDS011;9495;51.210;2.934;2023-04-04T07:33:30;15.83;;;7.67;;
18732;SDS011;9495;51.210;2.934;2023-04-04T07:35:59;12.23;;;7.30;;
18732;SDS011;9495;51.210;2.934;2023-04-04T07:38:28;12.40;;;6.30;;
18732;SDS011;9495;51.210;2.934;2023-04-04T07:40:57;11.37;;;5.73;;
18732;SDS011;9495;51.210;2.934;2023-04-04T07:43:29;13.63;;;5.90;;
18732;SDS011;9495;51.210;2.934;2023-04-04T07:45:57;11.23;;;5.40;;
18732;SDS011;9495;51.210;2.934;2023-04-04T07:48:26;11.27;;;5.30;;
18732;SDS011;9495;51.210;2.934;2023-04-04T07:50:54;13.30;;;6.57;;
18732;SDS011;9495;51.210;2.934;2023-04-04T07:53:23;9.57;;;5.83;;
18732;SDS011;9495;51.210;2.934;2023-04-04T07:55:51;15.13;;;6.30;;
18732;SDS011;9495;51.210;2.934;2023-04-04T07:58:19;10.20;;;5.17;;
18732;SDS011;9495;51.210;2.934;2023-04-04T08:00:49;9.93;;;5.03;;
18732;SDS011;9495;51.210;2.934;2023-04-04T08:03:18;12.07;;;5.80;;
18732;SDS011;9495;51.210;2.934;2023-04-04T08:05:49;12.17;;;4.93;;
18732;SDS011;9495;51.210;2.934;2023-04-04T08:08:18;13.00;;;5.73;;
18732;SDS011;9495;51.210;2.934;2023-04-04T08:10:47;15.90;;;6.27;;
18732;SDS011;9495;51.210;2.934;2023-04-04T08:13:15;15.13;;;5.57;;
18732;SDS011;9495;51.210;2.934;2023-04-04T08:15:44;8.67;;;5.10;;
18732;SDS011;9495;51.210;2.934;2023-04-04T08:18:14;8.53;;;4.87;;
18732;SDS011;9495;51.210;2.934;2023-04-04T08:20:43;8.10;;;4.33;;
18732;SDS011;9495;51.210;2.934;2023-04-04T08:23:12;9.90;;;4.67;;
18732;SDS011;9495;51.210;2.934;2023-04-04T08:25:40;13.13;;;4.50;;
18732;SDS011;9495;51.210;2.934;2023-04-04T08:28:11;10.20;;;4.80;;
18732;SDS011;9495;51.210;2.934;2023-04-04T08:30:41;9.77;;;3.90;;
18732;SDS011;9495;51.210;2.934;2023-04-04T08:33:09;7.43;;;4.20;;
18732;SDS011;9495;51.210;2.934;2023-04-04T08:35:39;9.73;;;4.30;;
18732;SDS011;9495;51.210;2.934;2023-04-04T08:38:07;8.73;;;4.30;;
18732;SDS011;9495;51.210;2.934;2023-04-04T08:40:36;11.00;;;4.73;;
18732;SDS011;9495;51.210;2.934;2023-04-04T08:43:05;10.33;;;5.00;;
18732;SDS011;9495;51.210;2.934;2023-04-04T08:45:34;11.07;;;4.83;;
18732;SDS011;9495;51.210;2.934;2023-04-04T08:48:04;8.87;;;4.73;;
18732;SDS011;9495;51.210;2.934;2023-04-04T08:50:34;7.40;;;4.43;;
18732;SDS011;9495;51.210;2.934;2023-04-04T08:53:08;9.83;;;4.27;;
18732;SDS011;9495;51.210;2.934;2023-04-04T08:55:37;11.00;;;4.30;;
18732;SDS011;9495;51.210;2.934;2023-04-04T08:58:06;9.77;;;4.13;;
18732;SDS011;9495;51.210;2.934;2023-04-04T09:00:35;9.90;;;4.57;;
18732;SDS011;9495;51.210;2.934;2023-04-04T09:03:08;10.07;;;4.20;;
18732;SDS011;9495;51.210;2.934;2023-04-04T09:05:41;9.27;;;4.30;;
18732;SDS011;9495;51.210;2.934;2023-04-04T09:08:12;10.77;;;4.40;;
18732;SDS011;9495;51.210;2.934;2023-04-04T09:10:41;11.53;;;4.20;;
18732;SDS011;9495;51.210;2.934;2023-04-04T09:13:11;7.80;;;3.53;;
18732;SDS011;9495;51.210;2.934;2023-04-04T09:15:45;7.63;;;3.80;;
18732;SDS011;9495;51.210;2.934;2023-04-04T09:18:15;11.50;;;3.77;;
18732;SDS011;9495;51.210;2.934;2023-04-04T09:20:45;7.83;;;4.10;;
18732;SDS011;9495;51.210;2.934;2023-04-04T09:23:15;5.57;;;3.57;;
18732;SDS011;9495;51.210;2.934;2023-04-04T09:25:46;8.70;;;3.93;;
18732;SDS011;9495;51.210;2.934;2023-04-04T09:28:19;7.00;;;3.83;;
18732;SDS011;9495;51.210;2.934;2023-04-04T09:30:49;9.53;;;3.80;;
18732;SDS011;9495;51.210;2.934;2023-04-04T09:33:18;6.87;;;3.60;;
18732;SDS011;9495;51.210;2.934;2023-04-04T09:35:50;8.37;;;3.30;;
18732;SDS011;9495;51.210;2.934;2023-04-04T09:38:22;7.57;;;3.10;;
18732;SDS011;9495;51.210;2.934;2023-04-04T09:40:53;8.23;;;3.53;;
18732;SDS011;9495;51.210;2.934;2023-04-04T09:43:22;7.93;;;3.90;;
18732;SDS011;9495;51.210;2.934;2023-04-04T09:45:52;7.20;;;3.17;;
18732;SDS011;9495;51.210;2.934;2023-04-04T09:48:24;7.47;;;3.70;;
18732;SDS011;9495;51.210;2.934;2023-04-04T09:50:54;5.03;;;3.17;;
18732;SDS011;9495;51.210;2.934;2023-04-04T09:53:26;7.33;;;2.90;;
18732;SDS011;9495;51.210;2.934;2023-04-04T09:55:55;6.10;;;3.20;;
18732;SDS011;9495;51.210;2.934;2023-04-04T09:58:24;12.43;;;3.63;;
18732;SDS011;9495;51.210;2.934;2023-04-04T10:00:54;8.63;;;3.43;;
18732;SDS011;9495;51.210;2.934;2023-04-04T10:03:25;7.80;;;4.03;;
18732;SDS011;9495;51.210;2.934;2023-04-04T10:05:54;7.87;;;2.87;;
18732;SDS011;9495;51.210;2.934;2023-04-04T10:08:27;7.70;;;3.30;;
18732;SDS011;9495;51.210;2.934;2023-04-04T10:10:57;7.40;;;3.40;;
18732;SDS011;9495;51.210;2.934;2023-04-04T10:13:36;9.60;;;3.07;;
18732;SDS011;9495;51.210;2.934;2023-04-04T10:16:07;7.73;;;3.40;;
18732;SDS011;9495;51.210;2.934;2023-04-04T10:18:37;7.27;;;3.43;;
18732;SDS011;9495;51.210;2.934;2023-04-04T10:21:07;7.63;;;3.87;;
18732;SDS011;9495;51.210;2.934;2023-04-04T10:23:41;7.57;;;3.60;;
18732;SDS011;9495;51.210;2.934;2023-04-04T10:26:12;5.97;;;3.80;;
18732;SDS011;9495;51.210;2.934;2023-04-04T10:28:41;7.97;;;3.93;;
18732;SDS011;9495;51.210;2.934;2023-04-04T10:31:15;9.30;;;3.90;;
18732;SDS011;9495;51.210;2.934;2023-04-04T10:36:38;9.20;;;3.70;;
18732;SDS011;9495;51.210;2.934;2023-04-04T10:39:14;7.10;;;3.90;;
18732;SDS011;9495;51.210;2.934;2023-04-04T10:41:54;7.43;;;3.50;;
18732;SDS011;9495;51.210;2.934;2023-04-04T10:44:28;7.10;;;4.13;;
18732;SDS011;9495;51.210;2.934;2023-04-04T10:47:01;6.20;;;3.23;;
18732;SDS011;9495;51.210;2.934;2023-04-04T10:49:41;7.87;;;3.90;;
18732;SDS011;9495;51.210;2.934;2023-04-04T10:52:11;9.70;;;4.10;;
18732;SDS011;9495;51.210;2.934;2023-04-04T10:54:44;7.47;;;3.60;;
18732;SDS011;9495;51.210;2.934;2023-04-04T10:57:13;6.53;;;3.67;;
18732;SDS011;9495;51.210;2.934;2023-04-04T10:59:56;10.37;;;4.07;;
18732;SDS011;9495;51.210;2.934;2023-04-04T11:05:22;6.27;;;3.73;;
18732;SDS011;9495;51.210;2.934;2023-04-04T11:07:54;9.57;;;3.77;;
18732;SDS011;9495;51.210;2.934;2023-04-04T11:10:29;8.37;;;4.30;;
18732;SDS011;9495;51.210;2.934;2023-04-04T11:13:00;10.53;;;4.27;;
18732;SDS011;9495;51.210;2.934;2023-04-04T11:15:45;8.00;;;4.07;;
18732;SDS011;9495;51.210;2.934;2023-04-04T11:18:21;7.27;;;3.60;;
18732;SDS011;9495;51.210;2.934;2023-04-04T11:21:12;7.23;;;3.63;;
18732;SDS011;9495;51.210;2.934;2023-04-04T11:26:41;10.60;;;4.23;;
18732;SDS011;9495;51.210;2.934;2023-04-04T11:29:11;9.77;;;4.20;;
18732;SDS011;9495;51.210;2.934;2023-04-04T11:31:49;8.10;;;3.97;;
18732;SDS011;9495;51.210;2.934;2023-04-04T11:34:30;7.13;;;3.60;;
18732;SDS011;9495;51.210;2.934;2023-04-04T11:37:13;9.90;;;4.37;;
18732;SDS011;9495;51.210;2.934;2023-04-04T11:39:47;12.17;;;4.27;;
18732;SDS011;9495;51.210;2.934;2023-04-04T11:42:23;7.53;;;4.37;;
18732;SDS011;9495;51.210;2.934;2023-04-04T11:45:00;7.77;;;4.30;;
18732;SDS011;9495;51.210;2.934;2023-04-04T11:47:30;9.00;;;4.60;;
18732;SDS011;9495;51.210;2.934;2023-04-04T11:49:59;8.53;;;4.20;;
18732;SDS011;9495;51.210;2.934;2023-04-04T11:52:31;10.13;;;4.90;;
18732;SDS011;9495;51.210;2.934;2023-04-04T11:55:00;10.33;;;4.23;;
18732;SDS011;9495;51.210;2.934;2023-04-04T11:57:31;9.00;;;3.87;;
18732;SDS011;9495;51.210;2.934;2023-04-04T12:00:08;9.10;;;4.23;;
18732;SDS011;9495;51.210;2.934;2023-04-04T12:02:37;8.47;;;4.23;;
18732;SDS011;9495;51.210;2.934;2023-04-04T12:05:06;8.57;;;4.03;;
18732;SDS011;9495;51.210;2.934;2023-04-04T12:07:35;8.90;;;3.83;;
18732;SDS011;9495;51.210;2.934;2023-04-04T12:10:04;9.97;;;4.10;;
18732;SDS011;9495;51.210;2.934;2023-04-04T12:12:37;5.47;;;3.90;;
18732;SDS011;9495;51.210;2.934;2023-04-04T12:15:07;8.67;;;3.90;;
18732;SDS011;9495;51.210;2.934;2023-04-04T12:17:43;6.80;;;4.20;;
18732;SDS011;9495;51.210;2.934;2023-04-04T12:20:14;8.30;;;3.80;;
18732;SDS011;9495;51.210;2.934;2023-04-04T12:22:46;7.30;;;3.70;;
18732;SDS011;9495;51.210;2.934;2023-04-04T12:25:17;6.67;;;3.87;;
18732;SDS011;9495;51.210;2.934;2023-04-04T12:27:48;5.47;;;3.60;;
18732;SDS011;9495;51.210;2.934;2023-04-04T12:30:18;6.83;;;4.10;;
18732;SDS011;9495;51.210;2.934;2023-04-04T12:32:47;7.23;;;4.00;;
18732;SDS011;9495;51.210;2.934;2023-04-04T12:35:16;6.27;;;3.43;;
18732;SDS011;9495;51.210;2.934;2023-04-04T12:37:57;5.20;;;3.43;;
18732;SDS011;9495;51.210;2.934;2023-04-04T12:40:31;7.53;;;3.60;;
18732;SDS011;9495;51.210;2.934;2023-04-04T12:43:07;6.70;;;3.87;;
18732;SDS011;9495;51.210;2.934;2023-04-04T12:45:36;8.47;;;3.87;;
18732;SDS011;9495;51.210;2.934;2023-04-04T12:48:10;11.07;;;4.33;;
18732;SDS011;9495;51.210;2.934;2023-04-04T12:50:49;7.50;;;4.00;;
18732;SDS011;9495;51.210;2.934;2023-04-04T12:53:19;7.17;;;4.10;;
18732;SDS011;9495;51.210;2.934;2023-04-04T12:55:51;8.03;;;4.43;;
18732;SDS011;9495;51.210;2.934;2023-04-04T12:58:23;6.60;;;4.10;;
18732;SDS011;9495;51.210;2.934;2023-04-04T13:00:52;9.50;;;4.40;;
18732;SDS011;9495;51.210;2.934;2023-04-04T13:03:22;6.63;;;4.10;;
18732;SDS011;9495;51.210;2.934;2023-04-04T13:05:51;9.10;;;4.47;;
18732;SDS011;9495;51.210;2.934;2023-04-04T13:08:20;8.90;;;4.10;;
18732;SDS011;9495;51.210;2.934;2023-04-04T13:10:54;6.90;;;4.40;;
18732;SDS011;9495;51.210;2.934;2023-04-04T13:13:30;7.17;;;4.43;;
18732;SDS011;9495;51.210;2.934;2023-04-04T13:16:03;7.53;;;4.27;;
18732;SDS011;9495;51.210;2.934;2023-04-04T13:18:34;10.63;;;4.07;;
18732;SDS011;9495;51.210;2.934;2023-04-04T13:21:04;9.77;;;4.63;;
18732;SDS011;9495;51.210;2.934;2023-04-04T13:23:34;6.63;;;4.43;;
18732;SDS011;9495;51.210;2.934;2023-04-04T13:26:05;7.90;;;4.80;;
18732;SDS011;9495;51.210;2.934;2023-04-04T13:28:36;8.30;;;4.70;;
18732;SDS011;9495;51.210;2.934;2023-04-04T13:31:05;9.00;;;4.13;;
18732;SDS011;9495;51.210;2.934;2023-04-04T13:33:35;9.60;;;4.43;;
18732;SDS011;9495;51.210;2.934;2023-04-04T13:36:04;6.50;;;4.37;;
18732;SDS011;9495;51.210;2.934;2023-04-04T13:38:33;8.23;;;4.70;;
18732;SDS011;9495;51.210;2.934;2023-04-04T13:41:01;11.37;;;4.83;;
18732;SDS011;9495;51.210;2.934;2023-04-04T13:43:30;7.07;;;4.30;;
18732;SDS011;9495;51.210;2.934;2023-04-04T13:46:00;9.17;;;4.70;;
18732;SDS011;9495;51.210;2.934;2023-04-04T13:48:28;9.73;;;5.10;;
18732;SDS011;9495;51.210;2.934;2023-04-04T13:50:57;8.80;;;4.90;;
18732;SDS011;9495;51.210;2.934;2023-04-04T13:53:26;10.67;;;5.57;;
18732;SDS011;9495;51.210;2.934;2023-04-04T13:55:54;10.43;;;5.10;;
18732;SDS011;9495;51.210;2.934;2023-04-04T13:58:43;8.70;;;5.03;;
18732;SDS011;9495;51.210;2.934;2023-04-04T14:01:13;8.67;;;5.70;;
18732;SDS011;9495;51.210;2.934;2023-04-04T14:03:41;7.17;;;5.67;;
18732;SDS011;9495;51.210;2.934;2023-04-04T14:06:10;11.00;;;5.87;;
18732;SDS011;9495;51.210;2.934;2023-04-04T14:08:39;8.17;;;5.10;;
18732;SDS011;9495;51.210;2.934;2023-04-04T14:11:07;13.60;;;6.53;;
18732;SDS011;9495;51.210;2.934;2023-04-04T14:13:36;7.83;;;6.27;;
18732;SDS011;9495;51.210;2.934;2023-04-04T14:16:05;11.40;;;5.37;;
18732;SDS011;9495;51.210;2.934;2023-04-04T14:18:35;9.83;;;6.33;;
18732;SDS011;9495;51.210;2.934;2023-04-04T14:21:04;8.83;;;5.60;;
18732;SDS011;9495;51.210;2.934;2023-04-04T14:23:32;12.63;;;5.90;;
18732;SDS011;9495;51.210;2.934;2023-04-04T14:26:01;9.93;;;5.73;;
18732;SDS011;9495;51.210;2.934;2023-04-04T14:28:29;8.87;;;5.47;;
18732;SDS011;9495;51.210;2.934;2023-04-04T14:30:58;12.27;;;6.07;;
18732;SDS011;9495;51.210;2.934;2023-04-04T14:33:26;7.93;;;5.87;;
18732;SDS011;9495;51.210;2.934;2023-04-04T14:35:56;9.80;;;6.30;;
18732;SDS011;9495;51.210;2.934;2023-04-04T14:38:25;14.83;;;6.40;;
18732;SDS011;9495;51.210;2.934;2023-04-04T14:40:53;13.00;;;6.23;;
18732;SDS011;9495;51.210;2.934;2023-04-04T14:43:21;10.77;;;6.30;;
18732;SDS011;9495;51.210;2.934;2023-04-04T14:45:50;10.17;;;6.30;;
18732;SDS011;9495;51.210;2.934;2023-04-04T14:48:19;8.47;;;6.27;;
18732;SDS011;9495;51.210;2.934;2023-04-04T14:50:47;12.00;;;6.43;;
18732;SDS011;9495;51.210;2.934;2023-04-04T14:53:17;12.97;;;7.40;;
18732;SDS011;9495;51.210;2.934;2023-04-04T14:55:46;8.87;;;6.20;;
18732;SDS011;9495;51.210;2.934;2023-04-04T14:58:15;7.87;;;6.27;;
18732;SDS011;9495;51.210;2.934;2023-04-04T15:00:43;9.53;;;6.70;;
18732;SDS011;9495;51.210;2.934;2023-04-04T15:03:12;11.83;;;6.60;;
18732;SDS011;9495;51.210;2.934;2023-04-04T15:05:41;11.77;;;6.67;;
18732;SDS011;9495;51.210;2.934;2023-04-04T15:08:09;10.17;;;6.97;;
18732;SDS011;9495;51.210;2.934;2023-04-04T15:10:39;12.77;;;6.93;;
18732;SDS011;9495;51.210;2.934;2023-04-04T15:13:08;11.67;;;6.43;;
18732;SDS011;9495;51.210;2.934;2023-04-04T15:15:36;10.23;;;5.30;;
18732;SDS011;9495;51.210;2.934;2023-04-04T15:18:05;10.43;;;5.80;;
18732;SDS011;9495;51.210;2.934;2023-04-04T15:20:33;13.63;;;5.60;;